sensor_id;sensor_type;location;lat;lon;timestamp;pressure;altitude;pressure_sealevel;temperature;humidity
39435;BME280;66825;51.880;-0.518;2023-03-07T00:00:00;99039.16;;;14.72;38.87
39435;BME280;66825;51.880;-0.518;2023-03-07T00:02:25;98909.28;;;13.87;38.70
39435;BME280;66825;51.880;-0.518;2023-03-07T00:04:51;99084.56;;;15.07;38.91
39435;BME280;66825;51.880;-0.518;2023-03-07T00:07:16;98999.56;;;14.54;38.83
39435;BME280;66825;51.880;-0.518;2023-03-07T00:09:42;99077.97;;;14.99;39.01
39435;BME280;66825;51.880;-0.518;2023-03-07T00:12:08;98973.66;;;14.39;39.03
39435;BME280;66825;51.880;-0.518;2023-03-07T00:14:34;99067.91;;;14.91;38.88
39435;BME280;66825;51.880;-0.518;2023-03-07T00:17:00;99089.00;;;15.03;38.75
39435;BME280;66825;51.880;-0.518;2023-03-07T00:19:26;99004.47;;;14.52;38.92
39435;BME280;66825;51.880;-0.518;2023-03-07T00:21:51;99060.25;;;14.84;39.03
39435;BME280;66825;51.880;-0.518;2023-03-07T00:24:17;99061.53;;;14.96;39.17
39435;BME280;66825;51.880;-0.518;2023-03-07T00:26:42;99047.19;;;14.86;38.93
39435;BME280;66825;51.880;-0.518;2023-03-07T00:29:09;99063.16;;;14.97;39.16
39435;BME280;66825;51.880;-0.518;2023-03-07T00:31:35;98955.94;;;14.24;39.03
39435;BME280;66825;51.880;-0.518;2023-03-07T00:34:01;99058.03;;;14.95;39.36
39435;BME280;66825;51.880;-0.518;2023-03-07T00:36:27;99040.78;;;14.82;39.07
39435;BME280;66825;51.880;-0.518;2023-03-07T00:38:53;99056.13;;;14.96;38.99
39435;BME280;66825;51.880;-0.518;2023-03-07T00:41:21;99059.94;;;14.95;38.99
39435;BME280;66825;51.880;-0.518;2023-03-07T00:43:47;99071.94;;;14.93;38.86
39435;BME280;66825;51.880;-0.518;2023-03-07T00:46:14;99080.06;;;14.93;38.92
39435;BME280;66825;51.880;-0.518;2023-03-07T00:48:39;99070.63;;;14.91;39.05
39435;BME280;66825;51.880;-0.518;2023-03-07T00:51:07;99084.19;;;14.91;38.90
39435;BME280;66825;51.880;-0.518;2023-03-07T00:53:33;99069.31;;;14.80;39.11
39435;BME280;66825;51.880;-0.518;2023-03-07T00:56:02;99069.66;;;14.78;38.93
39435;BME280;66825;51.880;-0.518;2023-03-07T00:58:31;99087.22;;;14.89;39.11
39435;BME280;66825;51.880;-0.518;2023-03-07T01:00:57;99057.81;;;14.74;39.00
39435;BME280;66825;51.880;-0.518;2023-03-07T01:03:23;98966.25;;;14.13;38.89
39435;BME280;66825;51.880;-0.518;2023-03-07T01:05:50;98965.78;;;14.11;39.11
39435;BME280;66825;51.880;-0.518;2023-03-07T01:08:16;99071.44;;;14.83;39.06
39435;BME280;66825;51.880;-0.518;2023-03-07T01:10:42;98898.88;;;13.71;39.14
39435;BME280;66825;51.880;-0.518;2023-03-07T01:13:09;99072.22;;;14.83;39.07
39435;BME280;66825;51.880;-0.518;2023-03-07T01:15:35;98961.03;;;14.17;38.90
39435;BME280;66825;51.880;-0.518;2023-03-07T01:18:01;99071.09;;;14.84;39.07
39435;BME280;66825;51.880;-0.518;2023-03-07T01:20:29;99066.28;;;14.81;39.18
39435;BME280;66825;51.880;-0.518;2023-03-07T01:22:55;99082.28;;;14.83;39.15
39435;BME280;66825;51.880;-0.518;2023-03-07T01:25:20;99032.88;;;14.54;39.00
39435;BME280;66825;51.880;-0.518;2023-03-07T01:27:46;99069.81;;;14.82;39.10
39435;BME280;66825;51.880;-0.518;2023-03-07T01:30:11;99074.44;;;14.81;38.95
39435;BME280;66825;51.880;-0.518;2023-03-07T01:32:37;98975.97;;;14.14;38.96
39435;BME280;66825;51.880;-0.518;2023-03-07T01:35:03;99075.84;;;14.79;38.98
39435;BME280;66825;51.880;-0.518;2023-03-07T01:37:29;98976.63;;;14.20;39.12
39435;BME280;66825;51.880;-0.518;2023-03-07T01:39:54;98975.66;;;14.16;39.19
39435;BME280;66825;51.880;-0.518;2023-03-07T01:42:20;99043.38;;;14.56;39.01
39435;BME280;66825;51.880;-0.518;2023-03-07T01:47:50;99046.59;;;14.58;39.08
39435;BME280;66825;51.880;-0.518;2023-03-07T01:50:16;99067.56;;;14.75;38.94
39435;BME280;66825;51.880;-0.518;2023-03-07T01:52:48;99061.78;;;14.68;39.00
39435;BME280;66825;51.880;-0.518;2023-03-07T01:55:20;98808.44;;;13.09;38.98
39435;BME280;66825;51.880;-0.518;2023-03-07T01:57:48;99060.84;;;14.72;38.76
39435;BME280;66825;51.880;-0.518;2023-03-07T02:00:18;99048.25;;;14.68;39.00
39435;BME280;66825;51.880;-0.518;2023-03-07T02:05:46;99063.88;;;14.71;39.15
39435;BME280;66825;51.880;-0.518;2023-03-07T02:08:15;99059.56;;;14.70;39.11
39435;BME280;66825;51.880;-0.518;2023-03-07T02:10:42;99040.72;;;14.65;38.95
39435;BME280;66825;51.880;-0.518;2023-03-07T02:13:08;99044.41;;;14.69;39.01
39435;BME280;66825;51.880;-0.518;2023-03-07T02:15:34;99036.25;;;14.60;39.15
39435;BME280;66825;51.880;-0.518;2023-03-07T02:18:00;99028.72;;;14.57;39.22
39435;BME280;66825;51.880;-0.518;2023-03-07T02:23:01;98982.38;;;14.27;39.14
39435;BME280;66825;51.880;-0.518;2023-03-07T02:28:32;99033.69;;;14.64;38.99
39435;BME280;66825;51.880;-0.518;2023-03-07T02:31:00;99043.72;;;14.63;39.04
39435;BME280;66825;51.880;-0.518;2023-03-07T02:33:26;99042.94;;;14.63;39.07
39435;BME280;66825;51.880;-0.518;2023-03-07T02:35:59;99037.53;;;14.63;39.15
39435;BME280;66825;51.880;-0.518;2023-03-07T02:38:26;99025.06;;;14.61;39.25
39435;BME280;66825;51.880;-0.518;2023-03-07T02:40:54;99011.50;;;14.53;39.11
39435;BME280;66825;51.880;-0.518;2023-03-07T02:43:20;99022.38;;;14.61;38.90
39435;BME280;66825;51.880;-0.518;2023-03-07T02:45:47;99027.78;;;14.61;38.92
39435;BME280;66825;51.880;-0.518;2023-03-07T02:48:12;99023.78;;;14.59;38.93
39435;BME280;66825;51.880;-0.518;2023-03-07T02:50:37;98994.84;;;14.37;39.03
39435;BME280;66825;51.880;-0.518;2023-03-07T02:53:03;99000.94;;;14.42;39.12
39435;BME280;66825;51.880;-0.518;2023-03-07T02:55:28;99011.34;;;14.49;38.77
39435;BME280;66825;51.880;-0.518;2023-03-07T02:57:54;99002.72;;;14.47;39.22
39435;BME280;66825;51.880;-0.518;2023-03-07T03:00:20;98915.50;;;13.87;39.23
39435;BME280;66825;51.880;-0.518;2023-03-07T03:02:45;99024.13;;;14.57;39.20
39435;BME280;66825;51.880;-0.518;2023-03-07T03:05:11;98989.94;;;14.39;39.09
39435;BME280;66825;51.880;-0.518;2023-03-07T03:07:36;98988.81;;;14.40;38.92
39435;BME280;66825;51.880;-0.518;2023-03-07T03:10:03;98824.81;;;13.35;39.04
39435;BME280;66825;51.880;-0.518;2023-03-07T03:12:28;98990.44;;;14.50;39.29
39435;BME280;66825;51.880;-0.518;2023-03-07T03:14:54;99011.97;;;14.55;39.09
39435;BME280;66825;51.880;-0.518;2023-03-07T03:17:19;98999.56;;;14.54;39.09
39435;BME280;66825;51.880;-0.518;2023-03-07T03:19:45;99003.06;;;14.54;39.20
39435;BME280;66825;51.880;-0.518;2023-03-07T03:22:10;98993.31;;;14.44;39.32
39435;BME280;66825;51.880;-0.518;2023-03-07T03:24:40;98998.25;;;14.51;39.24
39435;BME280;66825;51.880;-0.518;2023-03-07T03:27:06;99001.59;;;14.48;38.96
39435;BME280;66825;51.880;-0.518;2023-03-07T03:29:32;98999.34;;;14.50;39.33
39435;BME280;66825;51.880;-0.518;2023-03-07T03:31:57;98976.06;;;14.40;38.90
39435;BME280;66825;51.880;-0.518;2023-03-07T03:34:23;98908.81;;;13.93;39.28
39435;BME280;66825;51.880;-0.518;2023-03-07T03:36:48;98995.06;;;14.49;38.95
39435;BME280;66825;51.880;-0.518;2023-03-07T03:39:16;98892.88;;;13.83;39.20
39435;BME280;66825;51.880;-0.518;2023-03-07T03:41:41;98898.56;;;13.81;39.19
39435;BME280;66825;51.880;-0.518;2023-03-07T03:44:07;98994.41;;;14.43;38.99
39435;BME280;66825;51.880;-0.518;2023-03-07T03:46:33;98937.41;;;14.08;39.21
39435;BME280;66825;51.880;-0.518;2023-03-07T03:48:58;98974.75;;;14.29;39.13
39435;BME280;66825;51.880;-0.518;2023-03-07T03:51:24;98811.56;;;13.25;38.90
39435;BME280;66825;51.880;-0.518;2023-03-07T03:53:50;98990.28;;;14.46;38.85
39435;BME280;66825;51.880;-0.518;2023-03-07T03:56:20;98835.88;;;13.48;39.37
39435;BME280;66825;51.880;-0.518;2023-03-07T03:58:51;98998.41;;;14.46;38.95
39435;BME280;66825;51.880;-0.518;2023-03-07T04:01:19;98988.66;;;14.45;39.04
39435;BME280;66825;51.880;-0.518;2023-03-07T04:03:47;98998.06;;;14.39;39.08
39435;BME280;66825;51.880;-0.518;2023-03-07T04:06:21;98975.72;;;14.33;38.81
39435;BME280;66825;51.880;-0.518;2023-03-07T04:08:48;98907.50;;;13.82;38.94
39435;BME280;66825;51.880;-0.518;2023-03-07T04:11:13;98999.00;;;14.43;38.67
39435;BME280;66825;51.880;-0.518;2023-03-07T04:13:39;98994.72;;;14.42;39.04
39435;BME280;66825;51.880;-0.518;2023-03-07T04:16:05;98873.25;;;13.77;39.23
39435;BME280;66825;51.880;-0.518;2023-03-07T04:18:31;98956.13;;;14.36;38.87
39435;BME280;66825;51.880;-0.518;2023-03-07T04:20:56;98973.84;;;14.42;38.99
39435;BME280;66825;51.880;-0.518;2023-03-07T04:23:22;98970.63;;;14.40;39.18
39435;BME280;66825;51.880;-0.518;2023-03-07T04:25:54;98964.44;;;14.40;39.03
39435;BME280;66825;51.880;-0.518;2023-03-07T04:28:21;98952.56;;;14.18;39.23
39435;BME280;66825;51.880;-0.518;2023-03-07T04:30:47;98883.63;;;13.84;38.96
39435;BME280;66825;51.880;-0.518;2023-03-07T04:33:18;98852.19;;;13.65;38.82
39435;BME280;66825;51.880;-0.518;2023-03-07T04:35:44;98981.47;;;14.40;39.04
39435;BME280;66825;51.880;-0.518;2023-03-07T04:38:14;98967.16;;;14.40;39.18
39435;BME280;66825;51.880;-0.518;2023-03-07T04:40:40;98929.13;;;14.13;39.19
39435;BME280;66825;51.880;-0.518;2023-03-07T04:43:06;98968.25;;;14.39;38.90
39435;BME280;66825;51.880;-0.518;2023-03-07T04:45:33;98942.06;;;14.25;38.79
39435;BME280;66825;51.880;-0.518;2023-03-07T04:48:00;98868.94;;;13.76;38.86
39435;BME280;66825;51.880;-0.518;2023-03-07T04:50:25;98958.53;;;14.38;39.21
39435;BME280;66825;51.880;-0.518;2023-03-07T04:52:51;98903.13;;;13.95;38.86
39435;BME280;66825;51.880;-0.518;2023-03-07T04:55:16;98947.03;;;14.32;39.22
39435;BME280;66825;51.880;-0.518;2023-03-07T04:57:42;98858.63;;;13.78;39.47
39435;BME280;66825;51.880;-0.518;2023-03-07T05:00:08;98952.59;;;14.36;39.06
39435;BME280;66825;51.880;-0.518;2023-03-07T05:02:37;98928.38;;;14.22;39.35
39435;BME280;66825;51.880;-0.518;2023-03-07T05:05:03;98951.81;;;14.35;38.69
39435;BME280;66825;51.880;-0.518;2023-03-07T05:07:30;98761.38;;;13.10;38.68
39435;BME280;66825;51.880;-0.518;2023-03-07T05:09:55;98932.34;;;14.24;38.92
39435;BME280;66825;51.880;-0.518;2023-03-07T05:12:22;98952.16;;;14.34;38.83
39435;BME280;66825;51.880;-0.518;2023-03-07T05:14:47;98951.34;;;14.33;38.86
39435;BME280;66825;51.880;-0.518;2023-03-07T05:17:12;98881.75;;;13.93;38.65
39435;BME280;66825;51.880;-0.518;2023-03-07T05:19:38;98920.56;;;14.20;38.73
39435;BME280;66825;51.880;-0.518;2023-03-07T05:22:04;98843.56;;;13.63;39.33
39435;BME280;66825;51.880;-0.518;2023-03-07T05:24:29;98869.28;;;13.75;38.86
39435;BME280;66825;51.880;-0.518;2023-03-07T05:26:55;98948.16;;;14.31;39.28
39435;BME280;66825;51.880;-0.518;2023-03-07T05:29:20;98752.91;;;13.03;39.29
39435;BME280;66825;51.880;-0.518;2023-03-07T05:31:45;98943.84;;;14.30;39.16
39435;BME280;66825;51.880;-0.518;2023-03-07T05:34:11;98939.53;;;14.29;39.02
39435;BME280;66825;51.880;-0.518;2023-03-07T05:36:36;98939.53;;;14.29;38.94
39435;BME280;66825;51.880;-0.518;2023-03-07T05:39:02;98893.84;;;13.96;39.07
39435;BME280;66825;51.880;-0.518;2023-03-07T05:41:28;98929.81;;;14.28;39.21
39435;BME280;66825;51.880;-0.518;2023-03-07T05:43:53;98813.59;;;13.51;39.13
39435;BME280;66825;51.880;-0.518;2023-03-07T05:46:20;98837.56;;;13.66;39.24
39435;BME280;66825;51.880;-0.518;2023-03-07T05:48:46;98936.16;;;14.23;39.45
39435;BME280;66825;51.880;-0.518;2023-03-07T05:51:11;98896.78;;;14.08;39.39
39435;BME280;66825;51.880;-0.518;2023-03-07T05:53:37;98910.66;;;14.16;39.04
39435;BME280;66825;51.880;-0.518;2023-03-07T05:56:02;98925.81;;;14.25;38.94
39435;BME280;66825;51.880;-0.518;2023-03-07T05:58:28;98935.84;;;14.25;38.90
39435;BME280;66825;51.880;-0.518;2023-03-07T06:00:53;98926.16;;;14.24;39.34
39435;BME280;66825;51.880;-0.518;2023-03-07T06:03:19;98823.00;;;13.54;39.08
39435;BME280;66825;51.880;-0.518;2023-03-07T06:05:48;98899.31;;;14.05;39.27
39435;BME280;66825;51.880;-0.518;2023-03-07T06:08:14;98935.38;;;14.23;39.37
39435;BME280;66825;51.880;-0.518;2023-03-07T06:10:39;98942.69;;;14.22;39.13
39435;BME280;66825;51.880;-0.518;2023-03-07T06:13:05;98930.09;;;14.18;38.75
39435;BME280;66825;51.880;-0.518;2023-03-07T06:15:30;98941.09;;;14.21;39.45
39435;BME280;66825;51.880;-0.518;2023-03-07T06:17:56;98828.41;;;13.54;39.21
39435;BME280;66825;51.880;-0.518;2023-03-07T06:20:21;98917.16;;;14.06;38.91
39435;BME280;66825;51.880;-0.518;2023-03-07T06:22:47;98852.81;;;13.62;39.04
39435;BME280;66825;51.880;-0.518;2023-03-07T06:25:13;98950.34;;;14.20;39.00
39435;BME280;66825;51.880;-0.518;2023-03-07T06:27:41;98944.13;;;14.20;39.24
39435;BME280;66825;51.880;-0.518;2023-03-07T06:30:07;98873.41;;;13.72;39.03
39435;BME280;66825;51.880;-0.518;2023-03-07T06:32:34;98941.75;;;14.18;38.91
39435;BME280;66825;51.880;-0.518;2023-03-07T06:34:59;98959.59;;;14.19;38.57
39435;BME280;66825;51.880;-0.518;2023-03-07T06:37:25;98822.47;;;13.43;38.87
39435;BME280;66825;51.880;-0.518;2023-03-07T06:39:52;98948.25;;;14.17;39.19
39435;BME280;66825;51.880;-0.518;2023-03-07T06:42:18;98916.81;;;13.98;39.02
39435;BME280;66825;51.880;-0.518;2023-03-07T06:44:43;98951.28;;;14.16;39.45
39435;BME280;66825;51.880;-0.518;2023-03-07T06:47:09;98946.31;;;14.09;38.99
39435;BME280;66825;51.880;-0.518;2023-03-07T06:49:34;98761.75;;;12.95;38.75
39435;BME280;66825;51.880;-0.518;2023-03-07T06:52:00;98941.25;;;14.16;39.20
39435;BME280;66825;51.880;-0.518;2023-03-07T06:54:25;98832.03;;;13.40;39.21
39435;BME280;66825;51.880;-0.518;2023-03-07T06:56:51;98950.47;;;14.15;38.98
39435;BME280;66825;51.880;-0.518;2023-03-07T06:59:17;98950.81;;;14.13;38.91
39435;BME280;66825;51.880;-0.518;2023-03-07T07:01:43;98825.00;;;13.39;39.35
39435;BME280;66825;51.880;-0.518;2023-03-07T07:04:10;98944.59;;;14.13;39.42
39435;BME280;66825;51.880;-0.518;2023-03-07T07:06:36;98948.09;;;14.13;39.08
39435;BME280;66825;51.880;-0.518;2023-03-07T07:09:02;98947.13;;;14.09;39.26
39435;BME280;66825;51.880;-0.518;2023-03-07T07:11:28;98966.25;;;14.13;38.97
39435;BME280;66825;51.880;-0.518;2023-03-07T07:13:54;98935.28;;;13.96;39.48
39435;BME280;66825;51.880;-0.518;2023-03-07T07:16:19;98819.78;;;13.20;39.25
39435;BME280;66825;51.880;-0.518;2023-03-07T07:18:45;98964.16;;;14.10;39.15
39435;BME280;66825;51.880;-0.518;2023-03-07T07:21:11;98969.59;;;14.10;39.09
39435;BME280;66825;51.880;-0.518;2023-03-07T07:23:36;98923.94;;;13.86;39.29
39435;BME280;66825;51.880;-0.518;2023-03-07T07:26:02;98809.34;;;13.05;39.26
39435;BME280;66825;51.880;-0.518;2023-03-07T07:28:27;98963.06;;;14.11;39.28
39435;BME280;66825;51.880;-0.518;2023-03-07T07:30:53;98970.69;;;14.09;39.08
39435;BME280;66825;51.880;-0.518;2023-03-07T07:33:18;98875.06;;;13.50;38.80
39435;BME280;66825;51.880;-0.518;2023-03-07T07:35:44;98951.53;;;13.96;39.28
39435;BME280;66825;51.880;-0.518;2023-03-07T07:38:11;98962.56;;;14.09;39.31
39435;BME280;66825;51.880;-0.518;2023-03-07T07:40:36;98966.72;;;14.15;39.34
39435;BME280;66825;51.880;-0.518;2023-03-07T07:43:02;98896.63;;;13.73;39.74
39435;BME280;66825;51.880;-0.518;2023-03-07T07:45:28;98895.22;;;13.76;39.28
39435;BME280;66825;51.880;-0.518;2023-03-07T07:47:53;98949.22;;;14.21;39.71
39435;BME280;66825;51.880;-0.518;2023-03-07T07:50:20;98959.16;;;14.35;39.33
39435;BME280;66825;51.880;-0.518;2023-03-07T07:52:46;98966.03;;;14.41;39.40
39435;BME280;66825;51.880;-0.518;2023-03-07T07:55:13;98886.19;;;13.89;39.01
39435;BME280;66825;51.880;-0.518;2023-03-07T07:57:39;98966.06;;;14.50;39.07
39435;BME280;66825;51.880;-0.518;2023-03-07T08:00:06;98967.81;;;14.54;39.33
39435;BME280;66825;51.880;-0.518;2023-03-07T08:02:34;98952.34;;;14.46;39.46
39435;BME280;66825;51.880;-0.518;2023-03-07T08:05:00;98974.84;;;14.64;38.91
39435;BME280;66825;51.880;-0.518;2023-03-07T08:07:25;98964.50;;;14.57;39.06
39435;BME280;66825;51.880;-0.518;2023-03-07T08:09:51;98982.84;;;14.69;38.88
39435;BME280;66825;51.880;-0.518;2023-03-07T08:12:16;98990.22;;;14.77;38.89
39435;BME280;66825;51.880;-0.518;2023-03-07T08:14:42;98993.91;;;14.82;39.18
39435;BME280;66825;51.880;-0.518;2023-03-07T08:17:08;98982.06;;;14.77;38.91
39435;BME280;66825;51.880;-0.518;2023-03-07T08:19:33;98993.28;;;14.93;38.70
39435;BME280;66825;51.880;-0.518;2023-03-07T08:22:00;98991.69;;;15.01;38.64
39435;BME280;66825;51.880;-0.518;2023-03-07T08:24:26;98992.34;;;15.07;38.81
39435;BME280;66825;51.880;-0.518;2023-03-07T08:26:51;98970.63;;;15.07;38.84
39435;BME280;66825;51.880;-0.518;2023-03-07T08:29:17;98985.16;;;15.20;38.38
39435;BME280;66825;51.880;-0.518;2023-03-07T08:31:43;98976.84;;;15.16;38.66
39435;BME280;66825;51.880;-0.518;2023-03-07T08:34:10;98937.44;;;15.01;38.63
39435;BME280;66825;51.880;-0.518;2023-03-07T08:36:36;98911.59;;;14.86;38.84
39435;BME280;66825;51.880;-0.518;2023-03-07T08:39:02;98995.53;;;15.44;38.77
39435;BME280;66825;51.880;-0.518;2023-03-07T08:41:31;98875.56;;;14.77;38.73
39435;BME280;66825;51.880;-0.518;2023-03-07T08:43:56;98996.44;;;15.57;38.47
39435;BME280;66825;51.880;-0.518;2023-03-07T08:46:22;98986.56;;;15.61;38.47
39435;BME280;66825;51.880;-0.518;2023-03-07T08:48:48;98895.81;;;15.06;38.46
39435;BME280;66825;51.880;-0.518;2023-03-07T08:51:15;99000.59;;;15.72;38.13
39435;BME280;66825;51.880;-0.518;2023-03-07T08:53:42;98990.38;;;15.78;38.56
39435;BME280;66825;51.880;-0.518;2023-03-07T08:56:10;98990.22;;;15.83;38.38
39435;BME280;66825;51.880;-0.518;2023-03-07T08:58:36;98991.97;;;15.87;38.25
39435;BME280;66825;51.880;-0.518;2023-03-07T09:01:03;98991.78;;;15.93;38.39
39435;BME280;66825;51.880;-0.518;2023-03-07T09:03:29;98992.59;;;15.93;38.32
39435;BME280;66825;51.880;-0.518;2023-03-07T09:05:54;99001.81;;;16.01;38.02
39435;BME280;66825;51.880;-0.518;2023-03-07T09:08:20;98916.78;;;15.53;38.23
39435;BME280;66825;51.880;-0.518;2023-03-07T09:10:45;98993.50;;;16.06;38.00
39435;BME280;66825;51.880;-0.518;2023-03-07T09:13:11;98912.78;;;15.59;38.03
39435;BME280;66825;51.880;-0.518;2023-03-07T09:15:40;98898.28;;;15.55;39.97
39435;BME280;66825;51.880;-0.518;2023-03-07T09:18:06;98981.47;;;16.16;39.70
39435;BME280;66825;51.880;-0.518;2023-03-07T09:20:32;98995.97;;;16.29;40.13
39435;BME280;66825;51.880;-0.518;2023-03-07T09:22:57;98943.19;;;16.00;39.82
39435;BME280;66825;51.880;-0.518;2023-03-07T09:25:23;98994.50;;;16.40;40.75
39435;BME280;66825;51.880;-0.518;2023-03-07T09:27:49;98907.28;;;15.85;38.67
39435;BME280;66825;51.880;-0.518;2023-03-07T09:30:17;98996.69;;;16.47;41.26
39435;BME280;66825;51.880;-0.518;2023-03-07T09:32:42;98911.72;;;15.99;41.62
39435;BME280;66825;51.880;-0.518;2023-03-07T09:35:08;98991.66;;;16.58;39.86
39435;BME280;66825;51.880;-0.518;2023-03-07T09:37:34;99006.63;;;16.73;40.92
39435;BME280;66825;51.880;-0.518;2023-03-07T09:40:01;99018.22;;;16.82;40.45
39435;BME280;66825;51.880;-0.518;2023-03-07T09:42:43;98977.03;;;16.71;40.77
39435;BME280;66825;51.880;-0.518;2023-03-07T09:45:27;99010.81;;;16.91;39.29
39435;BME280;66825;51.880;-0.518;2023-03-07T09:50:36;99008.19;;;17.04;39.72
39435;BME280;66825;51.880;-0.518;2023-03-07T09:53:04;98892.59;;;16.46;39.73
39435;BME280;66825;51.880;-0.518;2023-03-07T09:55:31;98975.03;;;17.10;39.79
39435;BME280;66825;51.880;-0.518;2023-03-07T09:58:05;98980.75;;;17.18;38.80
39435;BME280;66825;51.880;-0.518;2023-03-07T10:00:34;98975.28;;;17.18;38.58
39435;BME280;66825;51.880;-0.518;2023-03-07T10:05:38;98984.19;;;17.27;39.54
39435;BME280;66825;51.880;-0.518;2023-03-07T10:08:11;98904.47;;;16.84;38.85
39435;BME280;66825;51.880;-0.518;2023-03-07T10:10:42;98959.78;;;17.18;38.27
39435;BME280;66825;51.880;-0.518;2023-03-07T10:13:21;98898.56;;;16.82;39.42
39435;BME280;66825;51.880;-0.518;2023-03-07T10:15:55;98986.09;;;17.48;39.73
39435;BME280;66825;51.880;-0.518;2023-03-07T10:28:56;98993.44;;;17.81;40.91
39435;BME280;66825;51.880;-0.518;2023-03-07T10:31:28;98988.22;;;17.75;41.02
39435;BME280;66825;51.880;-0.518;2023-03-07T10:33:54;98997.69;;;17.90;39.92
39435;BME280;66825;51.880;-0.518;2023-03-07T10:39:08;98992.28;;;18.03;39.44
39435;BME280;66825;51.880;-0.518;2023-03-07T10:41:37;98971.22;;;17.91;39.30
39435;BME280;66825;51.880;-0.518;2023-03-07T10:44:02;98918.50;;;17.62;39.20
39435;BME280;66825;51.880;-0.518;2023-03-07T10:46:29;98998.88;;;18.14;39.17
39435;BME280;66825;51.880;-0.518;2023-03-07T10:49:08;98922.59;;;17.81;39.11
39435;BME280;66825;51.880;-0.518;2023-03-07T10:54:37;98990.84;;;18.30;38.65
39435;BME280;66825;51.880;-0.518;2023-03-07T10:59:30;98991.06;;;18.37;39.82
39435;BME280;66825;51.880;-0.518;2023-03-07T11:01:58;98997.66;;;18.36;40.18
39435;BME280;66825;51.880;-0.518;2023-03-07T11:04:26;99006.53;;;18.46;38.79
39435;BME280;66825;51.880;-0.518;2023-03-07T11:06:56;99002.63;;;18.47;38.86
39435;BME280;66825;51.880;-0.518;2023-03-07T11:09:30;99004.03;;;18.53;38.82
39435;BME280;66825;51.880;-0.518;2023-03-07T11:12:11;99004.91;;;18.57;38.34
39435;BME280;66825;51.880;-0.518;2023-03-07T11:14:52;98902.34;;;18.03;38.57
39435;BME280;66825;51.880;-0.518;2023-03-07T11:17:40;98988.19;;;18.58;38.06
39435;BME280;66825;51.880;-0.518;2023-03-07T11:20:29;98999.34;;;18.66;37.79
39435;BME280;66825;51.880;-0.518;2023-03-07T11:23:31;98998.66;;;18.69;38.28
39435;BME280;66825;51.880;-0.518;2023-03-07T11:26:15;99000.25;;;18.70;38.39
39435;BME280;66825;51.880;-0.518;2023-03-07T11:28:41;98994.69;;;18.66;38.22
39435;BME280;66825;51.880;-0.518;2023-03-07T11:31:28;98884.16;;;17.94;37.99
39435;BME280;66825;51.880;-0.518;2023-03-07T11:34:04;98926.88;;;18.15;38.19
39435;BME280;66825;51.880;-0.518;2023-03-07T11:36:35;98984.47;;;18.51;38.45
39435;BME280;66825;51.880;-0.518;2023-03-07T11:41:40;98998.09;;;18.63;37.97
39435;BME280;66825;51.880;-0.518;2023-03-07T11:44:32;99009.94;;;18.67;37.85
39435;BME280;66825;51.880;-0.518;2023-03-07T11:47:02;98942.56;;;18.18;37.78
39435;BME280;66825;51.880;-0.518;2023-03-07T11:52:25;99028.22;;;18.67;38.04
39435;BME280;66825;51.880;-0.518;2023-03-07T12:06:46;99036.19;;;18.72;38.73
39435;BME280;66825;51.880;-0.518;2023-03-07T12:09:48;99031.97;;;18.75;38.66
39435;BME280;66825;51.880;-0.518;2023-03-07T12:20:29;99025.50;;;18.79;37.98
39435;BME280;66825;51.880;-0.518;2023-03-07T12:23:21;99023.91;;;18.78;37.98
39435;BME280;66825;51.880;-0.518;2023-03-07T12:25:51;99021.38;;;18.73;38.54
39435;BME280;66825;51.880;-0.518;2023-03-07T12:28:28;99028.78;;;18.72;38.41
39435;BME280;66825;51.880;-0.518;2023-03-07T12:36:42;99052.31;;;18.77;38.54
39435;BME280;66825;51.880;-0.518;2023-03-07T12:42:03;99065.59;;;18.79;38.26
39435;BME280;66825;51.880;-0.518;2023-03-07T12:47:35;98976.97;;;18.35;37.72
39435;BME280;66825;51.880;-0.518;2023-03-07T12:50:19;99053.56;;;18.80;37.80
39435;BME280;66825;51.880;-0.518;2023-03-07T12:52:59;99055.81;;;18.78;37.77
39435;BME280;66825;51.880;-0.518;2023-03-07T12:55:45;98978.09;;;18.22;37.87
39435;BME280;66825;51.880;-0.518;2023-03-07T13:00:53;99057.53;;;18.70;38.01
39435;BME280;66825;51.880;-0.518;2023-03-07T13:06:16;99069.47;;;18.65;37.53
39435;BME280;66825;51.880;-0.518;2023-03-07T13:08:46;99051.50;;;18.64;37.85
39435;BME280;66825;51.880;-0.518;2023-03-07T13:12:06;99051.75;;;18.59;37.55
39435;BME280;66825;51.880;-0.518;2023-03-07T13:14:38;99020.72;;;18.39;37.73
39435;BME280;66825;51.880;-0.518;2023-03-07T13:17:11;99049.38;;;18.57;37.73
39435;BME280;66825;51.880;-0.518;2023-03-07T13:24:42;99040.16;;;18.50;37.75
39435;BME280;66825;51.880;-0.518;2023-03-07T13:27:42;99048.44;;;18.53;37.98
39435;BME280;66825;51.880;-0.518;2023-03-07T13:38:23;99061.50;;;18.48;37.99
39435;BME280;66825;51.880;-0.518;2023-03-07T13:40:53;99054.44;;;18.47;38.08
39435;BME280;66825;51.880;-0.518;2023-03-07T13:45:58;98969.19;;;17.88;38.86
39435;BME280;66825;51.880;-0.518;2023-03-07T13:56:01;99042.75;;;18.46;38.79
39435;BME280;66825;51.880;-0.518;2023-03-07T14:01:20;99059.69;;;18.52;38.66
39435;BME280;66825;51.880;-0.518;2023-03-07T14:03:47;99058.00;;;18.47;38.38
39435;BME280;66825;51.880;-0.518;2023-03-07T14:06:20;99035.81;;;18.24;38.30
39435;BME280;66825;51.880;-0.518;2023-03-07T14:08:48;99062.41;;;18.39;38.25
39435;BME280;66825;51.880;-0.518;2023-03-07T14:11:23;99050.13;;;18.33;38.09
39435;BME280;66825;51.880;-0.518;2023-03-07T14:14:05;99066.94;;;18.48;37.95
39435;BME280;66825;51.880;-0.518;2023-03-07T14:22:30;99078.22;;;18.46;37.64
39435;BME280;66825;51.880;-0.518;2023-03-07T14:27:58;99073.75;;;18.41;38.12
39435;BME280;66825;51.880;-0.518;2023-03-07T14:30:27;98995.16;;;17.85;38.27
39435;BME280;66825;51.880;-0.518;2023-03-07T14:32:55;99087.16;;;18.47;38.12
39435;BME280;66825;51.880;-0.518;2023-03-07T14:35:42;99075.13;;;18.48;37.99
39435;BME280;66825;51.880;-0.518;2023-03-07T14:38:16;98915.28;;;17.35;37.85
39435;BME280;66825;51.880;-0.518;2023-03-07T14:41:19;99073.09;;;18.45;38.64
39435;BME280;66825;51.880;-0.518;2023-03-07T14:49:11;99074.69;;;18.46;38.52
39435;BME280;66825;51.880;-0.518;2023-03-07T14:51:42;99073.88;;;18.45;38.36
39435;BME280;66825;51.880;-0.518;2023-03-07T14:54:20;99068.09;;;18.47;38.65